sensor_id;sensor_type;location;lat;lon;timestamp;temperature;humidity
12223;DHT22;6174;49.058;8.524;2023-08-12T06:26:37;21.30;99.90
12223;DHT22;6174;49.058;8.524;2023-08-12T06:29:04;21.30;99.90
12223;DHT22;6174;49.058;8.524;2023-08-12T06:31:31;21.40;99.90
12223;DHT22;6174;49.058;8.524;2023-08-12T06:33:58;21.40;99.90
12223;DHT22;6174;49.058;8.524;2023-08-12T06:36:25;21.50;99.90
12223;DHT22;6174;49.058;8.524;2023-08-12T06:38:52;21.70;99.90
12223;DHT22;6174;49.058;8.524;2023-08-12T06:41:18;22.00;99.90
12223;DHT22;6174;49.058;8.524;2023-08-12T06:43:46;22.10;99.90
12223;DHT22;6174;49.058;8.524;2023-08-12T06:46:13;22.30;99.90
12223;DHT22;6174;49.058;8.524;2023-08-12T06:48:40;22.20;99.90
12223;DHT22;6174;49.058;8.524;2023-08-12T06:51:07;22.20;99.90
12223;DHT22;6174;49.058;8.524;2023-08-12T06:53:38;22.20;99.90
12223;DHT22;6174;49.058;8.524;2023-08-12T06:56:05;22.20;99.90
12223;DHT22;6174;49.058;8.524;2023-08-12T06:58:32;22.10;99.90
12223;DHT22;6174;49.058;8.524;2023-08-12T07:01:00;22.10;99.90
12223;DHT22;6174;49.058;8.524;2023-08-12T07:03:27;22.10;99.90
12223;DHT22;6174;49.058;8.524;2023-08-12T07:05:53;22.10;99.90
12223;DHT22;6174;49.058;8.524;2023-08-12T07:08:20;22.00;99.90
12223;DHT22;6174;49.058;8.524;2023-08-12T07:10:47;22.10;99.90
12223;DHT22;6174;49.058;8.524;2023-08-12T07:13:15;22.10;99.90
12223;DHT22;6174;49.058;8.524;2023-08-12T07:15:42;22.10;99.90
12223;DHT22;6174;49.058;8.524;2023-08-12T07:18:10;22.20;99.90
12223;DHT22;6174;49.058;8.524;2023-08-12T07:20:37;22.30;99.90
12223;DHT22;6174;49.058;8.524;2023-08-12T07:23:04;22.30;99.90
12223;DHT22;6174;49.058;8.524;2023-08-12T07:25:31;22.40;99.90
12223;DHT22;6174;49.058;8.524;2023-08-12T07:27:58;22.50;99.90
12223;DHT22;6174;49.058;8.524;2023-08-12T07:30:25;22.60;99.90
12223;DHT22;6174;49.058;8.524;2023-08-12T07:32:52;22.60;99.90
12223;DHT22;6174;49.058;8.524;2023-08-12T07:35:20;22.60;99.90
12223;DHT22;6174;49.058;8.524;2023-08-12T07:37:47;22.60;99.90
12223;DHT22;6174;49.058;8.524;2023-08-12T07:40:14;22.60;99.90
12223;DHT22;6174;49.058;8.524;2023-08-12T07:42:41;22.50;99.90
12223;DHT22;6174;49.058;8.524;2023-08-12T07:45:08;22.60;99.90
12223;DHT22;6174;49.058;8.524;2023-08-12T07:47:35;22.60;99.90
12223;DHT22;6174;49.058;8.524;2023-08-12T07:50:02;22.50;99.90
12223;DHT22;6174;49.058;8.524;2023-08-12T07:52:31;22.60;99.90
12223;DHT22;6174;49.058;8.524;2023-08-12T07:54:58;22.60;99.90
12223;DHT22;6174;49.058;8.524;2023-08-12T07:57:24;22.70;99.90
12223;DHT22;6174;49.058;8.524;2023-08-12T07:59:51;22.70;99.90
12223;DHT22;6174;49.058;8.524;2023-08-12T08:02:18;22.70;99.90
12223;DHT22;6174;49.058;8.524;2023-08-12T08:04:45;22.80;99.90
12223;DHT22;6174;49.058;8.524;2023-08-12T08:07:14;22.90;99.90
12223;DHT22;6174;49.058;8.524;2023-08-12T08:09:43;23.00;99.90
12223;DHT22;6174;49.058;8.524;2023-08-12T08:12:10;23.00;99.90
12223;DHT22;6174;49.058;8.524;2023-08-12T08:14:37;23.10;99.90
12223;DHT22;6174;49.058;8.524;2023-08-12T08:17:04;23.20;99.90
12223;DHT22;6174;49.058;8.524;2023-08-12T08:19:31;23.30;99.90
12223;DHT22;6174;49.058;8.524;2023-08-12T08:21:58;23.30;99.90
12223;DHT22;6174;49.058;8.524;2023-08-12T08:24:25;23.40;99.90
12223;DHT22;6174;49.058;8.524;2023-08-12T08:26:53;23.50;99.90
12223;DHT22;6174;49.058;8.524;2023-08-12T08:29:21;23.60;99.90
12223;DHT22;6174;49.058;8.524;2023-08-12T08:31:48;23.70;99.90
12223;DHT22;6174;49.058;8.524;2023-08-12T08:34:15;23.80;99.90
12223;DHT22;6174;49.058;8.524;2023-08-12T08:36:42;23.80;99.90
12223;DHT22;6174;49.058;8.524;2023-08-12T08:39:08;23.80;99.90
12223;DHT22;6174;49.058;8.524;2023-08-12T08:41:38;23.90;99.90
12223;DHT22;6174;49.058;8.524;2023-08-12T08:44:08;24.00;99.90
12223;DHT22;6174;49.058;8.524;2023-08-12T08:46:35;24.00;99.90
12223;DHT22;6174;49.058;8.524;2023-08-12T08:49:04;24.10;99.90
12223;DHT22;6174;49.058;8.524;2023-08-12T08:51:32;24.20;99.90
12223;DHT22;6174;49.058;8.524;2023-08-12T08:53:59;24.30;99.90
12223;DHT22;6174;49.058;8.524;2023-08-12T08:56:26;24.40;99.90
12223;DHT22;6174;49.058;8.524;2023-08-12T08:58:53;24.50;99.90
12223;DHT22;6174;49.058;8.524;2023-08-12T09:01:22;24.50;99.90
12223;DHT22;6174;49.058;8.524;2023-08-12T09:03:51;24.50;99.90
12223;DHT22;6174;49.058;8.524;2023-08-12T09:06:19;24.60;99.90
12223;DHT22;6174;49.058;8.524;2023-08-12T09:08:49;24.70;99.90
12223;DHT22;6174;49.058;8.524;2023-08-12T09:11:18;24.70;99.90
12223;DHT22;6174;49.058;8.524;2023-08-12T09:13:46;24.80;99.90
12223;DHT22;6174;49.058;8.524;2023-08-12T09:16:13;24.80;99.90
12223;DHT22;6174;49.058;8.524;2023-08-12T09:18:42;24.80;99.90
12223;DHT22;6174;49.058;8.524;2023-08-12T09:21:10;25.00;99.90
12223;DHT22;6174;49.058;8.524;2023-08-12T09:23:37;25.00;99.90
12223;DHT22;6174;49.058;8.524;2023-08-12T09:26:12;25.00;99.90
12223;DHT22;6174;49.058;8.524;2023-08-12T09:28:39;25.10;99.90
12223;DHT22;6174;49.058;8.524;2023-08-12T09:31:06;25.30;99.90
12223;DHT22;6174;49.058;8.524;2023-08-12T09:33:38;25.30;99.90
12223;DHT22;6174;49.058;8.524;2023-08-12T09:36:07;25.30;99.90
12223;DHT22;6174;49.058;8.524;2023-08-12T09:38:34;25.30;99.90
12223;DHT22;6174;49.058;8.524;2023-08-12T09:41:01;25.20;99.90
12223;DHT22;6174;49.058;8.524;2023-08-12T09:43:28;25.30;99.90
12223;DHT22;6174;49.058;8.524;2023-08-12T09:45:56;25.40;99.90
12223;DHT22;6174;49.058;8.524;2023-08-12T09:48:24;25.40;99.90
12223;DHT22;6174;49.058;8.524;2023-08-12T09:50:52;25.50;99.90
12223;DHT22;6174;49.058;8.524;2023-08-12T09:53:22;25.50;99.90
12223;DHT22;6174;49.058;8.524;2023-08-12T09:55:52;25.50;99.90
12223;DHT22;6174;49.058;8.524;2023-08-12T09:58:21;25.50;99.90
12223;DHT22;6174;49.058;8.524;2023-08-12T10:00:50;25.50;99.90
12223;DHT22;6174;49.058;8.524;2023-08-12T10:03:18;25.50;99.90
12223;DHT22;6174;49.058;8.524;2023-08-12T10:05:47;25.50;99.90
12223;DHT22;6174;49.058;8.524;2023-08-12T10:08:14;25.60;99.90
12223;DHT22;6174;49.058;8.524;2023-08-12T10:10:43;25.60;99.90
12223;DHT22;6174;49.058;8.524;2023-08-12T10:13:10;25.70;99.90
12223;DHT22;6174;49.058;8.524;2023-08-12T10:15:38;25.90;99.90
12223;DHT22;6174;49.058;8.524;2023-08-12T10:18:05;26.00;99.90
12223;DHT22;6174;49.058;8.524;2023-08-12T10:20:33;26.10;99.90
12223;DHT22;6174;49.058;8.524;2023-08-12T10:23:02;26.10;99.90
12223;DHT22;6174;49.058;8.524;2023-08-12T10:25:32;26.20;99.90
12223;DHT22;6174;49.058;8.524;2023-08-12T10:28:01;26.20;99.90
12223;DHT22;6174;49.058;8.524;2023-08-12T10:30:29;26.50;99.90
12223;DHT22;6174;49.058;8.524;2023-08-12T10:32:58;26.70;99.90
12223;DHT22;6174;49.058;8.524;2023-08-12T10:35:40;26.90;99.90
12223;DHT22;6174;49.058;8.524;2023-08-12T10:38:07;27.10;99.90
12223;DHT22;6174;49.058;8.524;2023-08-12T10:40:34;27.20;99.90
12223;DHT22;6174;49.058;8.524;2023-08-12T10:43:03;27.30;99.90
12223;DHT22;6174;49.058;8.524;2023-08-12T10:45:42;27.40;99.90
12223;DHT22;6174;49.058;8.524;2023-08-12T10:48:17;27.50;99.90
12223;DHT22;6174;49.058;8.524;2023-08-12T10:50:45;27.60;99.90
12223;DHT22;6174;49.058;8.524;2023-08-12T10:53:22;27.60;99.90
12223;DHT22;6174;49.058;8.524;2023-08-12T10:55:50;27.50;99.90
12223;DHT22;6174;49.058;8.524;2023-08-12T10:58:27;27.40;99.90
12223;DHT22;6174;49.058;8.524;2023-08-12T11:00:54;27.20;99.90
12223;DHT22;6174;49.058;8.524;2023-08-12T11:03:21;27.00;99.90
12223;DHT22;6174;49.058;8.524;2023-08-12T11:05:48;26.80;99.90
12223;DHT22;6174;49.058;8.524;2023-08-12T11:08:16;26.60;99.90
12223;DHT22;6174;49.058;8.524;2023-08-12T11:10:44;26.50;99.90
12223;DHT22;6174;49.058;8.524;2023-08-12T11:13:10;26.30;99.90
12223;DHT22;6174;49.058;8.524;2023-08-12T11:15:41;26.20;99.90
12223;DHT22;6174;49.058;8.524;2023-08-12T11:18:09;26.10;99.90
12223;DHT22;6174;49.058;8.524;2023-08-12T11:20:37;25.90;99.90
12223;DHT22;6174;49.058;8.524;2023-08-12T11:23:05;25.70;99.90
12223;DHT22;6174;49.058;8.524;2023-08-12T11:25:33;25.60;99.90
12223;DHT22;6174;49.058;8.524;2023-08-12T11:28:01;25.40;99.90
12223;DHT22;6174;49.058;8.524;2023-08-12T11:30:28;25.20;99.90
12223;DHT22;6174;49.058;8.524;2023-08-12T11:32:57;24.80;99.90
12223;DHT22;6174;49.058;8.524;2023-08-12T11:35:25;24.60;99.90
12223;DHT22;6174;49.058;8.524;2023-08-12T11:37:53;24.50;99.90
12223;DHT22;6174;49.058;8.524;2023-08-12T11:40:22;24.40;99.90
12223;DHT22;6174;49.058;8.524;2023-08-12T11:42:50;24.40;99.90
12223;DHT22;6174;49.058;8.524;2023-08-12T11:45:19;24.30;99.90
12223;DHT22;6174;49.058;8.524;2023-08-12T11:47:46;24.30;99.90
12223;DHT22;6174;49.058;8.524;2023-08-12T11:50:20;24.30;99.90
12223;DHT22;6174;49.058;8.524;2023-08-12T11:52:48;24.40;99.90
12223;DHT22;6174;49.058;8.524;2023-08-12T11:55:15;24.30;99.90
12223;DHT22;6174;49.058;8.524;2023-08-12T11:57:43;24.40;99.90
12223;DHT22;6174;49.058;8.524;2023-08-12T12:00:12;24.50;99.90
12223;DHT22;6174;49.058;8.524;2023-08-12T12:02:41;24.50;99.90
12223;DHT22;6174;49.058;8.524;2023-08-12T12:05:12;24.60;99.90
12223;DHT22;6174;49.058;8.524;2023-08-12T12:07:41;24.50;99.90
12223;DHT22;6174;49.058;8.524;2023-08-12T12:10:12;24.50;99.90
12223;DHT22;6174;49.058;8.524;2023-08-12T12:12:40;24.50;99.90
12223;DHT22;6174;49.058;8.524;2023-08-12T12:15:08;24.60;99.90
12223;DHT22;6174;49.058;8.524;2023-08-12T12:17:38;24.70;99.90
12223;DHT22;6174;49.058;8.524;2023-08-12T12:20:07;24.70;99.90
12223;DHT22;6174;49.058;8.524;2023-08-12T12:22:36;24.80;99.90
12223;DHT22;6174;49.058;8.524;2023-08-12T12:25:08;25.00;99.90
12223;DHT22;6174;49.058;8.524;2023-08-12T12:27:36;25.20;99.90
12223;DHT22;6174;49.058;8.524;2023-08-12T12:30:07;25.40;99.90
12223;DHT22;6174;49.058;8.524;2023-08-12T12:32:34;25.50;99.90
12223;DHT22;6174;49.058;8.524;2023-08-12T12:35:01;25.60;99.90
12223;DHT22;6174;49.058;8.524;2023-08-12T12:37:29;25.60;99.90
12223;DHT22;6174;49.058;8.524;2023-08-12T12:39:56;25.60;99.90
12223;DHT22;6174;49.058;8.524;2023-08-12T12:42:24;25.60;99.90
12223;DHT22;6174;49.058;8.524;2023-08-12T12:44:51;25.70;99.90
12223;DHT22;6174;49.058;8.524;2023-08-12T12:47:19;25.60;99.90
12223;DHT22;6174;49.058;8.524;2023-08-12T12:49:46;25.60;99.90
12223;DHT22;6174;49.058;8.524;2023-08-12T12:52:13;25.60;99.90
12223;DHT22;6174;49.058;8.524;2023-08-12T12:54:40;25.60;99.90
12223;DHT22;6174;49.058;8.524;2023-08-12T12:57:07;25.60;99.90
12223;DHT22;6174;49.058;8.524;2023-08-12T12:59:35;25.60;99.90
12223;DHT22;6174;49.058;8.524;2023-08-12T13:02:02;25.80;99.90
12223;DHT22;6174;49.058;8.524;2023-08-12T13:04:29;26.10;99.90
12223;DHT22;6174;49.058;8.524;2023-08-12T13:06:55;26.30;99.90
12223;DHT22;6174;49.058;8.524;2023-08-12T13:09:22;26.50;99.90
12223;DHT22;6174;49.058;8.524;2023-08-12T13:11:49;26.60;99.90
12223;DHT22;6174;49.058;8.524;2023-08-12T13:14:16;26.70;99.90
12223;DHT22;6174;49.058;8.524;2023-08-12T13:16:46;26.80;99.90
12223;DHT22;6174;49.058;8.524;2023-08-12T13:19:13;27.00;99.90
12223;DHT22;6174;49.058;8.524;2023-08-12T13:21:40;27.10;99.90
12223;DHT22;6174;49.058;8.524;2023-08-12T13:24:06;27.30;99.90
12223;DHT22;6174;49.058;8.524;2023-08-12T13:26:33;27.30;99.90
12223;DHT22;6174;49.058;8.524;2023-08-12T13:29:00;27.30;99.90
12223;DHT22;6174;49.058;8.524;2023-08-12T13:31:26;27.30;99.90
12223;DHT22;6174;49.058;8.524;2023-08-12T13:33:55;27.20;99.90
12223;DHT22;6174;49.058;8.524;2023-08-12T13:36:21;27.20;99.90
12223;DHT22;6174;49.058;8.524;2023-08-12T13:38:48;27.10;99.90
12223;DHT22;6174;49.058;8.524;2023-08-12T13:41:15;27.10;99.90
12223;DHT22;6174;49.058;8.524;2023-08-12T13:43:42;27.10;99.90
12223;DHT22;6174;49.058;8.524;2023-08-12T13:46:09;27.00;99.90
12223;DHT22;6174;49.058;8.524;2023-08-12T13:48:36;27.00;99.90
12223;DHT22;6174;49.058;8.524;2023-08-12T13:51:04;27.00;99.90
12223;DHT22;6174;49.058;8.524;2023-08-12T13:53:31;27.00;99.90
12223;DHT22;6174;49.058;8.524;2023-08-12T13:55:58;27.00;99.90
12223;DHT22;6174;49.058;8.524;2023-08-12T13:58:25;27.10;99.90
12223;DHT22;6174;49.058;8.524;2023-08-12T14:00:51;27.10;99.90
12223;DHT22;6174;49.058;8.524;2023-08-12T14:03:18;27.00;99.90
12223;DHT22;6174;49.058;8.524;2023-08-12T14:05:45;27.00;99.90
12223;DHT22;6174;49.058;8.524;2023-08-12T14:08:13;27.00;99.90
12223;DHT22;6174;49.058;8.524;2023-08-12T14:10:40;27.00;99.90
12223;DHT22;6174;49.058;8.524;2023-08-12T14:13:08;27.00;99.90
12223;DHT22;6174;49.058;8.524;2023-08-12T14:15:35;26.90;99.90
12223;DHT22;6174;49.058;8.524;2023-08-12T14:18:02;26.90;99.90
12223;DHT22;6174;49.058;8.524;2023-08-12T14:20:29;26.80;99.90
12223;DHT22;6174;49.058;8.524;2023-08-12T14:22:57;26.80;99.90
12223;DHT22;6174;49.058;8.524;2023-08-12T14:25:26;26.60;99.90
12223;DHT22;6174;49.058;8.524;2023-08-12T14:27:53;26.60;99.90
12223;DHT22;6174;49.058;8.524;2023-08-12T14:30:24;26.50;99.90
12223;DHT22;6174;49.058;8.524;2023-08-12T14:32:51;26.40;99.90
12223;DHT22;6174;49.058;8.524;2023-08-12T14:35:17;26.40;99.90
12223;DHT22;6174;49.058;8.524;2023-08-12T14:37:44;26.40;99.90
12223;DHT22;6174;49.058;8.524;2023-08-12T14:40:11;26.30;99.90
12223;DHT22;6174;49.058;8.524;2023-08-12T14:42:39;26.20;99.90
12223;DHT22;6174;49.058;8.524;2023-08-12T14:45:07;26.10;99.90
12223;DHT22;6174;49.058;8.524;2023-08-12T14:47:34;26.10;99.90
12223;DHT22;6174;49.058;8.524;2023-08-12T14:50:02;26.00;99.90
12223;DHT22;6174;49.058;8.524;2023-08-12T14:59:09;25.40;99.90
12223;DHT22;6174;49.058;8.524;2023-08-12T15:01:49;24.90;99.90
12223;DHT22;6174;49.058;8.524;2023-08-12T15:04:15;24.70;99.90
12223;DHT22;6174;49.058;8.524;2023-08-12T15:06:43;24.50;99.90
12223;DHT22;6174;49.058;8.524;2023-08-12T15:09:14;24.30;99.90
12223;DHT22;6174;49.058;8.524;2023-08-12T15:11:44;24.20;99.90
12223;DHT22;6174;49.058;8.524;2023-08-12T15:14:13;24.00;99.90
12223;DHT22;6174;49.058;8.524;2023-08-12T15:16:40;23.80;99.90
12223;DHT22;6174;49.058;8.524;2023-08-12T15:19:07;23.70;99.90
12223;DHT22;6174;49.058;8.524;2023-08-12T15:21:34;23.70;99.90
12223;DHT22;6174;49.058;8.524;2023-08-12T15:24:00;23.60;99.90
12223;DHT22;6174;49.058;8.524;2023-08-12T15:26:27;23.50;99.90
12223;DHT22;6174;49.058;8.524;2023-08-12T15:28:54;23.40;99.90
12223;DHT22;6174;49.058;8.524;2023-08-12T15:31:22;23.30;99.90
12223;DHT22;6174;49.058;8.524;2023-08-12T15:33:49;23.30;99.90
12223;DHT22;6174;49.058;8.524;2023-08-12T15:36:16;23.30;99.90
12223;DHT22;6174;49.058;8.524;2023-08-12T15:38:45;23.30;99.90
12223;DHT22;6174;49.058;8.524;2023-08-12T15:41:14;23.30;99.90
12223;DHT22;6174;49.058;8.524;2023-08-12T15:43:41;23.30;99.90
12223;DHT22;6174;49.058;8.524;2023-08-12T15:46:11;23.30;99.90
12223;DHT22;6174;49.058;8.524;2023-08-12T15:48:40;23.30;99.90
12223;DHT22;6174;49.058;8.524;2023-08-12T15:51:08;23.20;99.90
12223;DHT22;6174;49.058;8.524;2023-08-12T15:53:35;23.20;99.90
12223;DHT22;6174;49.058;8.524;2023-08-12T15:56:01;23.20;99.90
12223;DHT22;6174;49.058;8.524;2023-08-12T15:58:28;23.30;99.90
12223;DHT22;6174;49.058;8.524;2023-08-12T16:00:56;23.30;99.90
12223;DHT22;6174;49.058;8.524;2023-08-12T16:03:22;23.20;99.90
12223;DHT22;6174;49.058;8.524;2023-08-12T16:05:56;23.20;99.90
12223;DHT22;6174;49.058;8.524;2023-08-12T16:08:23;23.20;99.90
12223;DHT22;6174;49.058;8.524;2023-08-12T16:10:50;23.10;99.90
12223;DHT22;6174;49.058;8.524;2023-08-12T16:13:17;23.10;99.90
12223;DHT22;6174;49.058;8.524;2023-08-12T16:15:44;23.10;99.90
12223;DHT22;6174;49.058;8.524;2023-08-12T16:18:11;23.10;99.90
12223;DHT22;6174;49.058;8.524;2023-08-12T16:20:38;23.10;99.90
12223;DHT22;6174;49.058;8.524;2023-08-12T16:23:06;23.00;99.90
12223;DHT22;6174;49.058;8.524;2023-08-12T16:25:33;22.80;99.90
12223;DHT22;6174;49.058;8.524;2023-08-12T16:28:00;22.90;99.90
12223;DHT22;6174;49.058;8.524;2023-08-12T16:30:27;22.90;99.90
12223;DHT22;6174;49.058;8.524;2023-08-12T16:32:54;23.10;99.90
12223;DHT22;6174;49.058;8.524;2023-08-12T16:35:23;22.90;99.90
12223;DHT22;6174;49.058;8.524;2023-08-12T16:37:50;22.90;99.90
12223;DHT22;6174;49.058;8.524;2023-08-12T16:40:19;22.90;99.90
12223;DHT22;6174;49.058;8.524;2023-08-12T16:42:46;23.00;99.90
12223;DHT22;6174;49.058;8.524;2023-08-12T16:45:17;23.00;99.90
12223;DHT22;6174;49.058;8.524;2023-08-12T16:47:57;23.00;99.90
12223;DHT22;6174;49.058;8.524;2023-08-12T18:05:32;22.60;99.90
12223;DHT22;6174;49.058;8.524;2023-08-12T18:11:32;22.60;99.90
12223;DHT22;6174;49.058;8.524;2023-08-12T18:13:59;22.60;99.90
12223;DHT22;6174;49.058;8.524;2023-08-12T18:16:25;22.60;99.90
12223;DHT22;6174;49.058;8.524;2023-08-12T18:18:52;22.60;99.90
12223;DHT22;6174;49.058;8.524;2023-08-12T18:21:23;22.60;99.90
12223;DHT22;6174;49.058;8.524;2023-08-12T18:23:50;22.50;99.90
12223;DHT22;6174;49.058;8.524;2023-08-12T18:26:17;22.50;99.90
12223;DHT22;6174;49.058;8.524;2023-08-12T18:28:44;22.50;99.90
12223;DHT22;6174;49.058;8.524;2023-08-12T18:31:10;22.50;99.90
12223;DHT22;6174;49.058;8.524;2023-08-12T18:33:37;22.50;99.90
12223;DHT22;6174;49.058;8.524;2023-08-12T18:36:04;22.50;99.90
12223;DHT22;6174;49.058;8.524;2023-08-12T18:38:32;22.50;99.90
12223;DHT22;6174;49.058;8.524;2023-08-12T18:40:59;22.40;99.90
12223;DHT22;6174;49.058;8.524;2023-08-12T18:43:26;22.40;99.90
12223;DHT22;6174;49.058;8.524;2023-08-12T18:45:53;22.30;99.90
12223;DHT22;6174;49.058;8.524;2023-08-12T18:48:20;22.30;99.90
12223;DHT22;6174;49.058;8.524;2023-08-12T18:50:47;22.30;99.90
12223;DHT22;6174;49.058;8.524;2023-08-12T18:53:14;22.30;99.90
12223;DHT22;6174;49.058;8.524;2023-08-12T18:55:42;22.30;99.90
12223;DHT22;6174;49.058;8.524;2023-08-12T18:58:09;22.20;99.90
12223;DHT22;6174;49.058;8.524;2023-08-12T19:00:36;22.20;99.90
12223;DHT22;6174;49.058;8.524;2023-08-12T19:03:03;22.20;99.90
12223;DHT22;6174;49.058;8.524;2023-08-12T19:05:30;22.20;99.90
12223;DHT22;6174;49.058;8.524;2023-08-12T19:07:58;22.20;99.90
12223;DHT22;6174;49.058;8.524;2023-08-12T19:13:01;22.20;99.90
12223;DHT22;6174;49.058;8.524;2023-08-12T19:15:28;22.10;99.90
12223;DHT22;6174;49.058;8.524;2023-08-12T19:17:55;22.10;99.90
12223;DHT22;6174;49.058;8.524;2023-08-12T19:20:22;22.10;99.90
12223;DHT22;6174;49.058;8.524;2023-08-12T19:22:49;22.10;99.90
12223;DHT22;6174;49.058;8.524;2023-08-12T19:25:15;22.10;99.90
12223;DHT22;6174;49.058;8.524;2023-08-12T19:27:42;22.00;99.90
12223;DHT22;6174;49.058;8.524;2023-08-12T19:30:12;21.90;99.90
12223;DHT22;6174;49.058;8.524;2023-08-12T19:32:47;22.00;99.90
12223;DHT22;6174;49.058;8.524;2023-08-12T19:35:14;21.90;99.90
12223;DHT22;6174;49.058;8.524;2023-08-12T19:37:40;22.00;99.90
12223;DHT22;6174;49.058;8.524;2023-08-12T19:40:09;22.00;99.90
12223;DHT22;6174;49.058;8.524;2023-08-12T19:42:36;22.00;99.90
12223;DHT22;6174;49.058;8.524;2023-08-12T19:45:03;21.90;99.90
12223;DHT22;6174;49.058;8.524;2023-08-12T19:47:40;21.90;99.90
12223;DHT22;6174;49.058;8.524;2023-08-12T19:50:08;21.90;99.90
12223;DHT22;6174;49.058;8.524;2023-08-12T19:52:36;21.80;99.90
12223;DHT22;6174;49.058;8.524;2023-08-12T19:55:04;21.80;99.90
12223;DHT22;6174;49.058;8.524;2023-08-12T19:57:31;21.80;99.90
12223;DHT22;6174;49.058;8.524;2023-08-12T19:59:58;21.70;99.90
12223;DHT22;6174;49.058;8.524;2023-08-12T20:02:25;21.70;99.90
12223;DHT22;6174;49.058;8.524;2023-08-12T20:04:53;21.60;99.90
12223;DHT22;6174;49.058;8.524;2023-08-12T20:07:20;21.60;99.90
12223;DHT22;6174;49.058;8.524;2023-08-12T20:09:47;21.60;99.90
12223;DHT22;6174;49.058;8.524;2023-08-12T20:12:14;21.60;99.90
12223;DHT22;6174;49.058;8.524;2023-08-12T20:14:41;21.60;99.90
12223;DHT22;6174;49.058;8.524;2023-08-12T20:17:07;21.60;99.90
12223;DHT22;6174;49.058;8.524;2023-08-12T20:19:34;21.60;99.90
12223;DHT22;6174;49.058;8.524;2023-08-12T20:22:02;21.60;99.90
12223;DHT22;6174;49.058;8.524;2023-08-12T20:24:29;21.70;99.90
12223;DHT22;6174;49.058;8.524;2023-08-12T20:26:56;21.60;99.90
12223;DHT22;6174;49.058;8.524;2023-08-12T20:29:23;21.60;99.90
12223;DHT22;6174;49.058;8.524;2023-08-12T20:31:50;21.60;99.90
12223;DHT22;6174;49.058;8.524;2023-08-12T20:34:17;21.50;99.90
12223;DHT22;6174;49.058;8.524;2023-08-12T20:36:43;21.60;99.90
12223;DHT22;6174;49.058;8.524;2023-08-12T20:39:12;21.60;99.90
12223;DHT22;6174;49.058;8.524;2023-08-12T20:41:39;21.60;99.90
12223;DHT22;6174;49.058;8.524;2023-08-12T20:44:05;21.60;99.90
12223;DHT22;6174;49.058;8.524;2023-08-12T20:46:32;21.70;99.90
12223;DHT22;6174;49.058;8.524;2023-08-12T20:48:59;21.60;99.90
12223;DHT22;6174;49.058;8.524;2023-08-12T20:51:26;21.50;99.90
12223;DHT22;6174;49.058;8.524;2023-08-12T20:53:52;21.60;99.90
12223;DHT22;6174;49.058;8.524;2023-08-12T20:56:21;21.60;99.90
12223;DHT22;6174;49.058;8.524;2023-08-12T20:58:47;21.60;99.90
12223;DHT22;6174;49.058;8.524;2023-08-12T21:01:14;21.70;99.90
12223;DHT22;6174;49.058;8.524;2023-08-12T21:03:41;21.70;99.90
12223;DHT22;6174;49.058;8.524;2023-08-12T21:06:08;21.70;99.90
12223;DHT22;6174;49.058;8.524;2023-08-12T21:08:35;21.60;99.90
12223;DHT22;6174;49.058;8.524;2023-08-12T21:11:02;21.70;99.90
12223;DHT22;6174;49.058;8.524;2023-08-12T21:13:30;21.60;99.90
12223;DHT22;6174;49.058;8.524;2023-08-12T21:15:57;21.70;99.90
12223;DHT22;6174;49.058;8.524;2023-08-12T21:18:24;21.60;99.90
12223;DHT22;6174;49.058;8.524;2023-08-12T21:20:51;21.60;99.90
12223;DHT22;6174;49.058;8.524;2023-08-12T21:23:17;21.60;99.90
12223;DHT22;6174;49.058;8.524;2023-08-12T21:25:46;21.60;99.90
12223;DHT22;6174;49.058;8.524;2023-08-12T21:28:12;21.50;99.90
12223;DHT22;6174;49.058;8.524;2023-08-12T21:30:41;21.60;99.90
12223;DHT22;6174;49.058;8.524;2023-08-12T21:33:22;21.50;99.90
